»·PEaware :: N6018Z KBUR-KLAS

N6018Z :: KBUR-KLAS

FLIGHT INFORMATION

Flight Status: Arrived
Operator: Privately registered:
United States
More flights under this callsign
Pilot: Michael M. (23507)
Aircraft: BEECH AIRCRAFT DEBONAIR BONANZA
(BE33)
More flights by this aircraft type
Origin: KBUR Bob Hope-Burbank
United States
Destination: KLAS McCarran Intl
United States
More flights between these airports :: More routes between these airports
Route: VNY3 DAG CRESO4
File this flight plan on PilotEdge
Remarks: VISUAL APPROACH REQUESTED AT KLAS
Altitude:
(Current/Filed)
11,000ft
Speed:
(Current/Filed)
150kts
Departed: 10-Jan-21 03:57 PM
Arrived: 10-Jan-21 05:29 PM
Distance/Time
Traveled:
193nm/1:31
Distance/Time
To Go:
Arrived

Flight Plot

Page will automatically refresh every two minutes.

Flight plan parsing failed; only flown route is shown


Map Options




Map Legend


Flown Route
Filed Route
Departure Airport
Arrival Airport
Navaid (VOR, NDB)
Fix

Horizontal Profiles

Position Reports

Time Latitude Longitude Heading Altitude Ground
Speed
10-Jan-21 15:20 34.200210 -118.358862 280 721ft 0kts
10-Jan-21 15:21 34.200210 -118.358862 280 721ft 0kts
10-Jan-21 15:23 34.200210 -118.358862 280 721ft 0kts
10-Jan-21 15:29 34.200210 -118.358862 280 721ft 0kts
10-Jan-21 15:30 34.200210 -118.358862 280 721ft 0kts
10-Jan-21 15:31 34.200210 -118.358862 280 721ft 0kts
10-Jan-21 15:32 34.200210 -118.358862 280 721ft 0kts
10-Jan-21 15:33 34.200210 -118.358862 280 721ft 0kts
10-Jan-21 15:34 34.200210 -118.358862 280 721ft 0kts
10-Jan-21 15:35 34.200210 -118.358862 280 721ft 0kts
10-Jan-21 15:36 34.200210 -118.358862 280 721ft 0kts
10-Jan-21 15:37 34.200210 -118.358862 280 721ft 0kts
10-Jan-21 15:38 34.200210 -118.358862 280 721ft 0kts
10-Jan-21 15:40 34.200210 -118.358862 280 721ft 0kts
10-Jan-21 15:41 34.200210 -118.358862 280 721ft 0kts
10-Jan-21 15:42 34.200210 -118.358862 280 721ft 0kts
10-Jan-21 15:43 34.200210 -118.358862 280 721ft 0kts
10-Jan-21 15:44 34.200210 -118.358862 280 721ft 0kts
10-Jan-21 15:45 34.200210 -118.358862 280 721ft 0kts
10-Jan-21 15:46 34.200210 -118.358862 280 721ft 0kts
10-Jan-21 15:47 34.200210 -118.358862 280 721ft 0kts
10-Jan-21 15:48 34.200210 -118.358862 280 721ft 0kts
10-Jan-21 15:49 34.200210 -118.358862 280 721ft 0kts
10-Jan-21 15:50 34.199209 -118.359144 252 717ft 8kts
10-Jan-21 15:51 34.198932 -118.362950 272 722ft 22kts
10-Jan-21 15:52 34.198727 -118.369014 125 726ft 0kts
10-Jan-21 15:53 34.198727 -118.369014 125 726ft 0kts
10-Jan-21 15:54 34.198727 -118.369014 125 726ft 0kts
10-Jan-21 15:54 34.198727 -118.369014 125 726ft 0kts
10-Jan-21 15:56 34.198727 -118.369014 125 726ft 0kts
10-Jan-21 15:57 34.197833 -118.362567 92 734ft 89kts
10-Jan-21 15:57 34.197733 -118.336800 101 1645ft 96kts
10-Jan-21 15:58 34.179908 -118.331853 224 2707ft 82kts
10-Jan-21 15:59 34.165659 -118.353205 224 3552ft 84kts
10-Jan-21 16:00 34.166739 -118.375513 336 4396ft 97kts
10-Jan-21 16:01 34.191034 -118.389282 348 5209ft 93kts
10-Jan-21 16:02 34.213920 -118.396253 353 6052ft 78kts
10-Jan-21 16:03 34.234784 -118.404354 356 6714ft 81kts
10-Jan-21 16:04 34.254754 -118.410616 347 7565ft 67kts
10-Jan-21 16:05 34.272843 -118.417816 340 8215ft 73kts
10-Jan-21 16:06 34.291822 -118.423561 348 8958ft 66kts
10-Jan-21 16:07 34.309883 -118.430475 342 9626ft 66kts
10-Jan-21 16:08 34.328236 -118.436325 341 10231ft 68kts
10-Jan-21 16:09 34.346578 -118.444427 338 10770ft 74kts
10-Jan-21 16:10 34.368462 -118.454136 337 11045ft 104kts
10-Jan-21 16:11 34.397399 -118.442864 49 11060ft 155kts
10-Jan-21 16:12 34.422340 -118.398863 44 11059ft 160kts
10-Jan-21 16:13 34.448622 -118.356207 43 11065ft 157kts
10-Jan-21 16:14 34.475287 -118.313635 43 11074ft 159kts
10-Jan-21 16:15 34.502556 -118.270172 43 11085ft 159kts
10-Jan-21 16:16 34.529706 -118.226919 43 11093ft 159kts
10-Jan-21 16:17 34.556577 -118.183856 43 11098ft 160kts
10-Jan-21 16:18 34.583717 -118.140384 43 11099ft 160kts
10-Jan-21 16:19 34.612142 -118.094770 43 11099ft 161kts
10-Jan-21 16:20 34.632762 -118.042933 71 11024ft 175kts
10-Jan-21 16:21 34.640144 -117.984180 73 11023ft 175kts
10-Jan-21 16:22 34.646727 -117.924418 74 11020ft 175kts
10-Jan-21 16:23 34.653150 -117.865363 74 11017ft 175kts
10-Jan-21 16:24 34.659530 -117.806555 73 11017ft 175kts
10-Jan-21 16:25 34.668256 -117.748951 64 11019ft 170kts
10-Jan-21 16:26 34.682046 -117.694031 63 11020ft 169kts
10-Jan-21 16:27 34.696090 -117.639447 63 11023ft 169kts
10-Jan-21 16:28 34.709980 -117.584747 63 11026ft 169kts
10-Jan-21 16:29 34.723948 -117.530207 62 11028ft 167kts
10-Jan-21 16:30 34.737724 -117.476089 62 11028ft 166kts
10-Jan-21 16:31 34.751425 -117.422374 62 11028ft 166kts
10-Jan-21 16:32 34.765138 -117.368461 62 11029ft 167kts
10-Jan-21 16:33 34.778806 -117.314405 63 11027ft 166kts
10-Jan-21 16:34 34.792418 -117.260550 63 11028ft 166kts
10-Jan-21 16:35 34.805948 -117.206951 62 11029ft 165kts
10-Jan-21 16:36 34.819454 -117.153303 63 11031ft 165kts
10-Jan-21 16:37 34.832866 -117.099921 63 11033ft 164kts
10-Jan-21 16:38 34.846246 -117.046451 63 11034ft 164kts
10-Jan-21 16:39 34.859595 -116.993191 63 11027ft 165kts
10-Jan-21 16:40 34.872989 -116.939588 63 11026ft 165kts
10-Jan-21 16:41 34.886374 -116.885947 64 11027ft 165kts
10-Jan-21 16:42 34.899714 -116.832269 64 11027ft 165kts
10-Jan-21 16:43 34.913051 -116.778503 64 11027ft 166kts
10-Jan-21 16:44 34.926337 -116.724743 64 11027ft 165kts
10-Jan-21 16:45 34.939647 -116.670751 65 11027ft 166kts
10-Jan-21 16:46 34.953025 -116.616405 65 11028ft 166kts
10-Jan-21 16:47 34.969137 -116.564149 55 11028ft 162kts
10-Jan-21 16:48 34.990418 -116.515632 54 11027ft 162kts
10-Jan-21 16:49 35.011870 -116.467229 54 11027ft 162kts
10-Jan-21 16:50 35.033764 -116.417944 55 11031ft 169kts
10-Jan-21 16:51 35.056271 -116.367063 55 11030ft 171kts
10-Jan-21 16:52 35.079101 -116.315549 56 11026ft 172kts
10-Jan-21 16:53 35.101829 -116.264013 56 11028ft 172kts
10-Jan-21 16:54 35.124522 -116.212550 56 11030ft 172kts
10-Jan-21 16:55 35.147254 -116.160846 56 11030ft 172kts
10-Jan-21 16:56 35.169970 -116.109286 56 11030ft 172kts
10-Jan-21 16:57 35.192723 -116.057506 56 11030ft 172kts
10-Jan-21 16:58 35.215394 -116.005807 56 11030ft 172kts
10-Jan-21 16:59 35.238129 -115.953856 56 11030ft 173kts
10-Jan-21 17:00 35.260826 -115.902061 56 11031ft 173kts
10-Jan-21 17:01 35.283118 -115.850856 56 11038ft 167kts
10-Jan-21 17:02 35.304897 -115.800907 56 11047ft 165kts
10-Jan-21 17:03 35.332972 -115.757781 42 11054ft 161kts
10-Jan-21 17:04 35.363267 -115.717089 41 11060ft 162kts
10-Jan-21 17:05 35.393842 -115.676356 41 11066ft 163kts
10-Jan-21 17:06 35.424537 -115.635321 41 11067ft 163kts
10-Jan-21 17:07 35.455174 -115.594254 41 11066ft 163kts
10-Jan-21 17:08 35.486398 -115.552525 41 11067ft 163kts
10-Jan-21 17:09 35.517158 -115.511366 41 11066ft 163kts
10-Jan-21 17:10 35.547891 -115.470116 41 11066ft 163kts
10-Jan-21 17:11 35.578572 -115.428912 41 11066ft 163kts
10-Jan-21 17:12 35.609318 -115.387597 41 11066ft 163kts
10-Jan-21 17:13 35.640206 -115.345944 42 11037ft 164kts
10-Jan-21 17:14 35.670892 -115.304619 42 11037ft 163kts
10-Jan-21 17:15 35.709235 -115.274284 18 10694ft 171kts
10-Jan-21 17:16 35.757095 -115.249725 17 9665ft 192kts
10-Jan-21 17:17 35.806543 -115.224544 20 8564ft 203kts
10-Jan-21 17:19 35.859388 -115.198292 20 7060ft 204kts
10-Jan-21 17:20 35.906365 -115.174999 20 7012ft 168kts
10-Jan-21 17:21 35.948554 -115.153766 20 7013ft 161kts
10-Jan-21 17:22 35.989790 -115.132910 20 7013ft 159kts
10-Jan-21 17:23 36.031212 -115.110821 20 6842ft 162kts
10-Jan-21 17:24 36.076200 -115.085556 24 5669ft 197kts
10-Jan-21 17:25 36.120466 -115.075071 317 4036ft 162kts
10-Jan-21 17:26 36.140701 -115.112596 270 3469ft 111kts
10-Jan-21 17:27 36.124013 -115.142094 214 2751ft 109kts
10-Jan-21 17:28 36.097992 -115.157378 204 2171ft 97kts
10-Jan-21 17:29 36.084281 -115.165856 227 2147ft 30kts
10-Jan-21 17:30 36.083763 -115.166670 233 2152ft 0kts
10-Jan-21 17:31 36.083607 -115.166909 228 2153ft 8kts
10-Jan-21 17:32 36.082243 -115.168805 205 2162ft 13kts
10-Jan-21 17:33 36.081639 -115.170931 345 2167ft 3kts
10-Jan-21 17:33 36.081687 -115.170944 0 2167ft 0kts

Navigation Log

Ident Type
Flight plan parsing failed, navigation log unavailable